Time;durP1;ratioP1;P1;durP2;ratioP2;P2;SDS_P1;SDS_P2;PMS_P1;PMS_P2;Temp;Humidity;BMP_temperature;BMP_pressure;BME280_temperature;BME280_humidity;BME280_pressure;Samples;Min_cycle;Max_cycle;Signal;HPM_P1;HPM_P2
2022/04/14 00:02:21;;;;;;;5.00;4.18;;;;;;;19.62;41.22;96966.41;10190992;29;20047;-56
2022/04/14 00:07:41;;;;;;;6.43;3.92;;;;;;;19.61;41.23;96962.13;10194781;29;20056;-56
2022/04/14 00:13:01;;;;;;;5.32;4.20;;;;;;;19.60;41.36;96958.66;10204937;29;20499;-56
2022/04/14 00:18:20;;;;;;;4.85;4.00;;;;;;;19.60;41.21;96965.94;10180029;29;20056;-56
2022/04/14 00:23:39;;;;;;;4.45;3.70;;;;;;;19.59;41.35;96959.75;10196976;28;20051;-56
2022/04/14 00:28:59;;;;;;;4.78;4.00;;;;;;;19.59;41.42;96958.97;10200944;29;20099;-55
2022/04/14 00:34:18;;;;;;;4.93;3.80;;;;;;;19.59;41.39;96953.56;10202595;29;20126;-56
2022/04/14 00:39:38;;;;;;;5.40;3.78;;;;;;;19.58;41.31;96960.06;10206278;29;20051;-56
2022/04/14 00:44:57;;;;;;;4.38;3.80;;;;;;;19.58;41.29;96968.16;10194644;28;20136;-56
2022/04/14 00:50:17;;;;;;;5.13;3.85;;;;;;;19.56;41.40;96969.28;10192030;29;20131;-56
2022/04/14 00:55:36;;;;;;;4.38;3.80;;;;;;;19.54;41.40;96958.00;10183450;29;20123;-56
2022/04/14 01:00:56;;;;;;;4.38;3.45;;;;;;;19.54;41.42;96960.72;10176473;29;20055;-56
2022/04/14 01:06:16;;;;;;;6.13;4.00;;;;;;;19.54;41.32;96962.59;10178915;29;20119;-56
2022/04/14 01:11:36;;;;;;;3.83;3.40;;;;;;;19.53;41.46;96955.63;10190037;28;20051;-56
2022/04/14 01:16:57;;;;;;;5.50;3.53;;;;;;;19.52;41.34;96960.25;10204478;29;20128;-56
2022/04/14 01:22:26;;;;;;;4.55;3.70;;;;;;;19.51;41.35;96958.63;10199483;28;20043;-56
2022/04/14 01:27:45;;;;;;;4.77;3.60;;;;;;;19.51;41.51;96958.63;10181727;29;20927;-56
2022/04/14 01:33:04;;;;;;;4.60;3.83;;;;;;;19.51;41.50;96958.63;10219721;28;20048;-56
2022/04/14 01:38:24;;;;;;;4.25;2.97;;;;;;;19.49;41.52;96963.56;10172062;29;20055;-56
2022/04/14 01:43:43;;;;;;;3.25;2.92;;;;;;;19.50;41.42;96967.06;10209135;29;20044;-56
2022/04/14 01:49:03;;;;;;;3.70;3.30;;;;;;;19.48;41.59;96964.69;10199881;29;20059;-56
2022/04/14 01:54:23;;;;;;;4.25;3.15;;;;;;;19.48;41.55;96959.28;10186926;29;20051;-56
2022/04/14 01:59:42;;;;;;;3.33;3.00;;;;;;;19.46;41.51;96953.38;10191723;29;20223;-57
2022/04/14 02:05:03;;;;;;;3.63;3.22;;;;;;;19.46;41.43;96958.00;10198904;29;20052;-54
2022/04/14 02:10:22;;;;;;;4.05;3.08;;;;;;;19.45;41.38;96949.13;10193204;29;20044;-56
2022/04/14 02:15:42;;;;;;;4.05;3.08;;;;;;;19.45;41.50;96945.63;10196731;29;20078;-56
2022/04/14 02:21:01;;;;;;;3.00;2.75;;;;;;;19.45;41.49;96956.44;10206672;29;20044;-56
2022/04/14 02:26:21;;;;;;;3.13;2.83;;;;;;;19.42;41.41;96949.75;10180630;29;20059;-56
2022/04/14 02:31:40;;;;;;;3.30;3.00;;;;;;;19.42;41.44;96933.53;10229034;28;20119;-56
2022/04/14 02:36:59;;;;;;;3.20;2.90;;;;;;;19.42;41.54;96940.84;10191194;29;20056;-57
2022/04/14 02:42:18;;;;;;;3.20;2.90;;;;;;;19.42;41.43;96952.44;10195708;29;20055;-56
2022/04/14 02:47:38;;;;;;;3.63;2.67;;;;;;;19.41;41.51;96947.38;10185739;29;20064;-55
2022/04/14 02:52:57;;;;;;;4.30;2.90;;;;;;;19.40;41.50;96945.78;10235597;29;20063;-56
2022/04/14 02:58:16;;;;;;;3.65;2.83;;;;;;;19.39;41.61;96945.00;10183284;29;20072;-56
2022/04/14 03:03:36;;;;;;;3.30;2.72;;;;;;;19.38;41.59;96938.00;10195854;29;20055;-56
2022/04/14 03:08:55;;;;;;;2.63;2.40;;;;;;;19.36;41.43;96932.91;10199913;29;20067;-56
2022/04/14 03:14:15;;;;;;;2.95;2.50;;;;;;;19.35;41.62;96931.31;10194965;29;20051;-56
2022/04/14 03:19:34;;;;;;;2.95;2.58;;;;;;;19.35;41.57;96933.25;10225774;28;20153;-56
2022/04/14 03:24:56;;;;;;;3.00;2.70;;;;;;;19.35;41.56;96938.66;10212601;29;20056;-56
2022/04/14 03:30:16;;;;;;;2.83;2.53;;;;;;;19.33;41.62;96930.84;10196214;29;20071;-56
2022/04/14 03:35:35;;;;;;;2.67;2.28;;;;;;;19.32;41.56;96923.06;10188619;29;20518;-56
2022/04/14 03:40:55;;;;;;;2.88;2.58;;;;;;;19.31;41.45;96921.50;10226937;28;20062;-56
2022/04/14 03:46:15;;;;;;;3.53;2.80;;;;;;;19.30;41.59;96920.66;10202763;29;20058;-56
2022/04/14 03:51:34;;;;;;;3.80;2.65;;;;;;;19.29;41.61;96919.09;10190871;29;20404;-56
2022/04/14 03:56:53;;;;;;;3.15;2.53;;;;;;;19.30;41.57;96920.66;10206268;28;20051;-56
2022/04/14 04:02:13;;;;;;;2.95;2.70;;;;;;;19.31;41.68;96929.59;10200141;29;20568;-56
2022/04/14 04:07:32;;;;;;;2.63;2.42;;;;;;;19.33;41.68;96930.06;10212332;28;20107;-56
2022/04/14 04:12:51;;;;;;;2.58;2.38;;;;;;;19.32;41.74;96931.94;10211531;29;20059;-56
2022/04/14 04:18:11;;;;;;;2.42;2.22;;;;;;;19.35;41.50;96939.44;10185988;29;20059;-56
2022/04/14 04:23:30;;;;;;;3.25;2.22;;;;;;;19.37;41.50;96936.41;10203576;29;20058;-57
2022/04/14 04:28:50;;;;;;;2.58;2.03;;;;;;;19.40;41.70;96938.47;10202009;29;20056;-56
2022/04/14 04:34:09;;;;;;;2.97;2.40;;;;;;;19.42;41.82;96932.75;10199333;29;20076;-51
2022/04/14 04:39:29;;;;;;;2.85;2.47;;;;;;;19.45;42.23;96938.31;10190497;29;20715;-57
2022/04/14 04:44:48;;;;;;;2.60;2.40;;;;;;;19.49;42.47;96946.56;10231253;28;20047;-55
2022/04/14 04:50:08;;;;;;;8.10;6.07;;;;;;;19.41;37.28;96942.75;10193673;29;20063;-56
2022/04/14 04:55:28;;;;;;;4.13;3.45;;;;;;;19.36;39.45;96946.41;10219661;28;20098;-55
2022/04/14 05:00:47;;;;;;;5.32;3.00;;;;;;;19.43;40.62;96945.16;10210370;29;20451;-57
2022/04/14 05:06:06;;;;;;;4.05;2.90;;;;;;;19.50;40.57;96951.66;10208382;28;20052;-56
2022/04/14 05:11:26;;;;;;;4.43;2.90;;;;;;;19.54;40.66;96955.31;10203135;29;20047;-57
2022/04/14 05:16:45;;;;;;;3.78;2.83;;;;;;;19.59;40.59;96954.34;10202686;28;20043;-58
2022/04/14 05:22:05;;;;;;;4.13;2.75;;;;;;;19.63;40.74;96965.31;10181224;29;20543;-56
2022/04/14 05:27:25;;;;;;;5.05;2.70;;;;;;;19.65;41.18;96969.28;10189708;29;20416;-56
2022/04/14 05:32:44;;;;;;;4.57;2.75;;;;;;;19.68;41.20;96965.94;10226051;28;20040;-56
2022/04/14 05:38:05;;;;;;;8.73;6.78;;;;;;;19.58;35.84;96952.75;10210024;29;20106;-56
2022/04/14 05:43:27;;;;;;;8.73;6.80;;;;;;;19.38;36.29;96956.91;10209335;29;20062;-55
2022/04/14 05:48:48;;;;;;;15.73;8.10;;;;;;;19.45;35.80;96965.31;10204936;29;20059;-56
2022/04/14 05:54:07;;;;;;;19.60;6.97;;;;;;;19.53;37.72;96961.81;10224472;29;20043;-53
2022/04/14 05:59:27;;;;;;;17.33;7.57;;;;;;;19.60;37.66;96960.53;10262992;28;20043;-55
2022/04/14 06:04:47;;;;;;;16.85;7.30;;;;;;;19.66;37.59;96954.66;10236762;29;20043;-54
2022/04/14 06:10:07;;;;;;;15.93;7.03;;;;;;;19.71;37.69;96959.09;10216789;29;20066;-54
2022/04/14 06:15:27;;;;;;;17.70;6.75;;;;;;;19.73;37.78;96952.28;10218177;29;20052;-54
2022/04/14 06:20:50;;;;;;;16.55;6.75;;;;;;;19.75;37.93;96960.06;10230830;28;20127;-55
2022/04/14 06:26:09;;;;;;;21.70;7.30;;;;;;;19.77;38.07;96957.03;10217758;29;20055;-55
2022/04/14 06:31:30;;;;;;;14.52;6.68;;;;;;;19.78;38.26;96951.31;10241328;29;20418;-53
2022/04/14 06:36:50;;;;;;;15.95;6.43;;;;;;;19.81;38.34;96950.66;10217141;29;20051;-55
2022/04/14 06:42:09;;;;;;;19.08;6.15;;;;;;;19.82;38.36;96952.25;10216549;29;20059;-55
2022/04/14 06:47:29;;;;;;;15.75;6.20;;;;;;;19.83;38.47;96948.44;10216665;29;20078;-55
2022/04/14 06:52:48;;;;;;;17.90;6.85;;;;;;;19.85;38.65;96951.59;10212192;29;20054;-55
2022/04/14 06:58:08;;;;;;;13.60;6.43;;;;;;;19.85;39.09;96957.00;10216752;29;20055;-55
2022/04/14 07:03:27;;;;;;;12.60;5.93;;;;;;;19.88;39.29;96967.19;10216557;29;20081;-52
2022/04/14 07:08:47;;;;;;;10.88;5.53;;;;;;;19.88;39.63;96964.50;10216217;29;20419;-53
2022/04/14 07:14:06;;;;;;;12.82;6.05;;;;;;;19.89;39.83;96957.94;10216018;29;20110;-55
2022/04/14 07:19:26;;;;;;;14.43;5.72;;;;;;;19.90;40.06;96953.38;10216170;29;20115;-52
2022/04/14 07:24:50;;;;;;;12.35;5.70;;;;;;;19.90;40.30;96954.16;10215796;29;20102;-54
2022/04/14 07:30:09;;;;;;;10.98;5.32;;;;;;;19.91;40.15;96944.91;10220669;29;20051;-52
2022/04/14 07:35:29;;;;;;;10.82;4.85;;;;;;;19.93;40.15;96936.47;10215294;29;20455;-55
2022/04/14 07:40:49;;;;;;;12.80;5.57;;;;;;;19.92;40.30;96941.09;10214522;29;20052;-55
2022/04/14 07:46:09;;;;;;;11.02;5.28;;;;;;;19.94;40.46;96943.50;10215090;29;20103;-56
2022/04/14 07:51:28;;;;;;;10.82;5.45;;;;;;;19.92;40.44;96949.22;10216236;29;20531;-55
2022/04/14 07:56:48;;;;;;;11.15;5.20;;;;;;;19.94;40.58;96941.56;10249424;28;20044;-55
2022/04/14 08:02:07;;;;;;;10.15;4.85;;;;;;;19.93;40.58;96945.41;10214407;29;20051;-55
2022/04/14 08:07:27;;;;;;;12.77;5.20;;;;;;;19.95;40.60;96945.06;10212474;28;20055;-52
2022/04/14 08:12:47;;;;;;;8.52;4.70;;;;;;;19.95;40.66;96947.75;10226697;28;20114;-52
2022/04/14 08:18:07;;;;;;;9.15;4.72;;;;;;;19.95;40.84;96950.47;10213928;29;20144;-55
2022/04/14 08:23:27;;;;;;;8.65;4.93;;;;;;;19.95;40.85;96948.56;10212736;29;20059;-55
2022/04/14 08:28:47;;;;;;;8.20;4.47;;;;;;;19.95;40.77;96948.56;10214734;29;20123;-55
2022/04/14 08:34:06;;;;;;;10.30;4.70;;;;;;;19.95;40.85;96954.00;10222544;29;20411;-55
2022/04/14 08:39:26;;;;;;;9.45;4.47;;;;;;;19.97;40.87;96955.56;10257256;28;20050;-55
2022/04/14 08:45:04;;;;;;;8.27;4.47;;;;;;;19.97;40.93;96950.94;10619963;27;20612;-54
2022/04/14 08:50:25;;;;;;;8.63;4.80;;;;;;;19.96;40.91;96952.06;10614683;28;20104;-56
2022/04/14 08:55:46;;;;;;;10.43;4.25;;;;;;;19.95;41.04;96951.28;10615195;28;20072;-54
2022/04/14 09:01:05;;;;;;;7.32;4.28;;;;;;;19.95;41.14;96945.88;10615183;28;20051;-56
2022/04/14 09:06:27;;;;;;;9.07;4.65;;;;;;;19.95;41.22;96940.47;10614275;28;20051;-55
2022/04/14 09:11:47;;;;;;;7.20;4.22;;;;;;;19.97;41.26;96939.34;10628317;27;20498;-55
2022/04/14 09:17:07;;;;;;;7.55;3.95;;;;;;;19.95;41.19;96937.75;10614413;28;20082;-56
2022/04/14 09:22:27;;;;;;;7.28;4.10;;;;;;;19.95;41.30;96940.47;10627822;27;20043;-54
2022/04/14 09:27:47;;;;;;;7.18;3.78;;;;;;;19.97;41.24;96944.75;10647957;27;20107;-57
2022/04/14 09:33:15;;;;;;;6.30;3.85;;;;;;;19.95;41.26;96940.47;10617440;27;20421;-56
2022/04/14 09:38:58;;;;;;;5.80;3.80;;;;;;;19.95;41.38;96932.34;10643315;27;20035;-56
2022/04/14 09:44:17;;;;;;;5.75;3.92;;;;;;;19.95;41.34;96926.94;10657516;27;20054;-56
2022/04/14 09:49:41;;;;;;;7.88;4.13;;;;;;;19.97;41.27;96939.34;10655480;27;20051;-57
2022/04/14 09:55:07;;;;;;;7.10;3.55;;;;;;;19.95;41.37;96920.72;10659318;27;20061;-53
2022/04/14 10:00:47;;;;;;;7.38;4.10;;;;;;;19.97;41.60;96923.09;10683329;27;20042;-54
2022/04/14 10:06:07;;;;;;;6.93;3.80;;;;;;;19.95;41.62;96909.91;10669438;27;20074;-54
2022/04/14 10:11:36;;;;;;;5.82;3.55;;;;;;;19.95;41.57;96926.94;10669344;27;20043;-57
2022/04/14 10:16:59;;;;;;;5.57;3.50;;;;;;;19.95;41.56;96918.84;10669069;27;20054;-53
2022/04/14 10:22:19;;;;;;;5.93;3.75;;;;;;;19.96;41.64;96916.91;10668794;27;20050;-56
2022/04/14 10:27:39;;;;;;;5.40;3.67;;;;;;;19.95;41.71;96921.53;10628686;27;20068;-55
2022/04/14 10:32:59;;;;;;;6.13;3.63;;;;;;;19.95;41.68;96924.25;10626414;27;20170;-56
2022/04/14 10:38:26;;;;;;;6.13;3.63;;;;;;;19.95;41.68;96929.66;10668135;27;20114;-53
2022/04/14 10:43:46;;;;;;;5.85;3.60;;;;;;;19.97;41.74;96925.81;10670392;27;20078;-56
2022/04/14 10:49:11;;;;;;;4.68;3.25;;;;;;;19.94;41.83;96919.94;10575184;27;20047;-56
2022/04/14 10:54:56;;;;;;;6.00;3.70;;;;;;;19.95;41.78;96920.72;10625087;27;20054;-56
2022/04/14 11:00:18;;;;;;;5.10;3.15;;;;;;;19.94;41.81;96928.03;10638315;27;20039;-56
2022/04/14 11:05:43;;;;;;;4.55;3.10;;;;;;;19.96;41.71;96925.03;10623019;27;20051;-57
2022/04/14 11:11:10;;;;;;;6.30;3.92;;;;;;;19.94;41.92;96938.88;10624348;27;20047;-56
2022/04/14 11:16:40;;;;;;;5.25;3.40;;;;;;;19.93;41.87;96931.88;10624246;27;20059;-56
2022/04/14 11:22:02;;;;;;;5.47;3.42;;;;;;;19.94;41.97;96928.03;10621338;27;20573;-54
2022/04/14 11:27:24;;;;;;;4.70;3.15;;;;;;;19.93;41.93;96922.97;10623354;27;20062;-54
2022/04/14 11:32:44;;;;;;;7.03;3.20;;;;;;;19.93;42.05;96926.47;10661408;27;20494;-53
2022/04/14 11:38:04;;;;;;;4.55;3.13;;;;;;;19.93;42.10;96921.06;10622541;27;20051;-56
2022/04/14 11:43:23;;;;;;;4.03;2.90;;;;;;;19.92;42.06;96919.47;10621572;27;20464;-56
2022/04/14 11:48:43;;;;;;;4.95;3.20;;;;;;;19.93;42.07;96926.47;10627324;27;20039;-56
2022/04/14 11:54:03;;;;;;;6.35;3.28;;;;;;;19.94;42.19;96929.97;10619112;27;20447;-54
2022/04/14 11:59:54;;;;;;;5.47;3.38;;;;;;;19.93;42.14;96923.78;10613549;27;20118;-56
2022/04/14 12:05:18;;;;;;;3.80;2.72;;;;;;;19.93;42.20;96917.56;10602121;27;20058;-56
2022/04/14 12:10:38;;;;;;;5.20;2.95;;;;;;;19.93;42.29;96912.97;10599859;27;20047;-56
2022/04/14 12:16:03;;;;;;;4.40;3.10;;;;;;;19.94;42.12;96913.75;10622202;27;20050;-57
2022/04/14 12:21:24;;;;;;;4.13;2.75;;;;;;;19.93;42.16;96907.56;10612946;27;20031;-55
2022/04/14 12:26:44;;;;;;;4.00;2.65;;;;;;;19.94;42.40;96913.75;10616189;27;20043;-56
2022/04/14 12:32:11;;;;;;;5.70;3.28;;;;;;;19.93;42.31;96899.44;10610108;27;20074;-56
2022/04/14 12:37:43;;;;;;;4.00;2.40;;;;;;;19.93;42.23;96906.75;10628326;27;20058;-56
2022/04/14 12:43:06;;;;;;;4.15;2.70;;;;;;;19.93;42.35;96910.25;10624118;27;20125;-56
2022/04/14 12:48:36;;;;;;;4.88;2.83;;;;;;;19.93;42.40;96902.16;10612963;27;20039;-56
2022/04/14 12:53:57;;;;;;;3.85;2.65;;;;;;;19.94;42.43;96895.59;10614999;27;20121;-56
2022/04/14 12:59:18;;;;;;;3.28;2.60;;;;;;;19.95;42.35;96902.63;10615436;27;20051;-56
2022/04/14 13:04:40;;;;;;;4.00;2.75;;;;;;;19.95;42.48;96901.78;10618544;27;20482;-57
2022/04/14 13:10:02;;;;;;;3.88;2.60;;;;;;;19.93;42.53;96904.84;10620499;27;20490;-57
2022/04/14 13:15:22;;;;;;;3.58;2.65;;;;;;;19.93;42.55;96904.84;10599484;27;20402;-56
2022/04/14 13:20:42;;;;;;;3.28;2.30;;;;;;;19.94;42.53;96894.81;10615559;27;20047;-56
2022/04/14 13:26:02;;;;;;;3.92;2.58;;;;;;;19.92;42.63;96889.72;10610484;27;20444;-56
2022/04/14 13:31:22;;;;;;;4.57;2.50;;;;;;;19.93;42.55;96894.03;10629965;27;20054;-57
2022/04/14 13:36:42;;;;;;;3.58;2.47;;;;;;;19.94;42.72;96892.91;10596233;27;20036;-56
2022/04/14 13:42:03;;;;;;;3.17;2.55;;;;;;;19.95;42.75;96885.56;10596808;27;20126;-56
2022/04/14 13:47:22;;;;;;;4.05;2.60;;;;;;;19.94;42.72;96884.78;10591869;27;20074;-57
2022/04/14 13:52:45;;;;;;;3.15;2.58;;;;;;;19.93;42.72;96883.22;10605765;27;20118;-57
2022/04/14 13:58:04;;;;;;;4.22;2.50;;;;;;;19.93;42.64;96896.72;10597441;27;20486;-57
2022/04/14 14:03:24;;;;;;;3.13;2.70;;;;;;;19.92;42.75;96897.84;10633160;27;20035;-55
2022/04/14 14:08:44;;;;;;;3.42;2.35;;;;;;;19.93;42.84;96898.63;10638725;27;20417;-56
2022/04/14 14:14:04;;;;;;;2.80;2.30;;;;;;;19.93;42.80;96893.22;10668055;27;20121;-56
2022/04/14 14:19:23;;;;;;;4.03;3.10;;;;;;;19.93;42.70;96880.50;10611104;27;20047;-55
2022/04/14 14:24:42;;;;;;;5.07;3.42;;;;;;;19.93;42.59;96883.22;10619444;27;20043;-56
2022/04/14 14:30:03;;;;;;;3.30;2.80;;;;;;;19.94;42.78;96901.00;10591635;27;20051;-53
2022/04/14 14:35:23;;;;;;;4.57;3.30;;;;;;;19.92;42.81;96903.25;10623789;27;20044;-56
2022/04/14 14:40:43;;;;;;;9.80;4.35;;;;;;;19.91;42.81;96901.66;10587167;27;20055;-56
2022/04/14 14:46:03;;;;;;;8.50;4.70;;;;;;;19.89;41.63;96903.09;10601925;27;20047;-57
2022/04/14 14:51:22;;;;;;;10.18;6.20;;;;;;;19.87;41.18;96908.81;10604361;27;20043;-55
2022/04/14 14:56:42;;;;;;;10.98;6.95;;;;;;;19.87;40.63;96913.44;10601223;27;20082;-57
2022/04/14 15:02:03;;;;;;;13.35;6.60;;;;;;;19.85;40.23;96919.16;10601815;27;20051;-57
2022/04/14 15:07:24;;;;;;;18.42;7.07;;;;;;;19.84;39.82;96923.00;10591202;27;20054;-57
2022/04/14 15:12:46;;;;;;;14.13;7.45;;;;;;;19.82;39.46;96914.41;10597147;27;20080;-60
2022/04/14 15:18:06;;;;;;;12.70;8.13;;;;;;;19.82;39.14;96922.53;10599320;27;20031;-55
2022/04/14 15:23:28;;;;;;;11.68;7.47;;;;;;;19.81;38.73;96923.63;10601971;27;20043;-51
2022/04/14 15:28:47;;;;;;;11.30;7.18;;;;;;;19.81;38.36;96922.84;10597717;27;20477;-55
2022/04/14 15:34:07;;;;;;;14.95;6.95;;;;;;;19.79;38.06;96927.78;10603681;27;20043;-62
2022/04/14 15:39:26;;;;;;;12.52;7.72;;;;;;;19.78;37.68;96932.41;10613406;27;20035;-59
2022/04/14 15:44:46;;;;;;;10.27;6.88;;;;;;;19.77;37.05;96938.13;10606232;27;20051;-60
2022/04/14 15:50:06;;;;;;;13.00;8.10;;;;;;;19.76;36.49;96942.75;10619035;27;20050;-59
2022/04/14 15:55:26;;;;;;;12.82;7.30;;;;;;;19.74;36.84;96942.28;10610285;27;20047;-58
2022/04/14 16:00:46;;;;;;;13.57;7.38;;;;;;;19.74;37.04;96950.38;10597290;27;20513;-58
2022/04/14 16:06:05;;;;;;;16.15;8.50;;;;;;;19.72;36.83;96939.88;10594461;27;20071;-59
2022/04/14 16:17:03;;;;;;;14.77;8.47;;;;;;;19.69;37.02;96950.50;10591435;27;20052;-58
2022/04/14 16:22:23;;;;;;;16.17;8.60;;;;;;;19.69;36.96;96953.22;10595279;27;20312;-56
2022/04/14 16:27:43;;;;;;;14.73;8.98;;;;;;;19.67;36.87;96958.94;10600433;27;20043;-58
2022/04/14 16:33:03;;;;;;;15.73;9.55;;;;;;;19.65;37.28;96954.97;10592800;27;20134;-53
2022/04/14 16:38:23;;;;;;;13.73;8.50;;;;;;;19.65;37.60;96963.88;10609811;27;20050;-53
2022/04/14 16:43:45;;;;;;;15.15;7.72;;;;;;;19.64;37.95;96972.28;10592934;28;20067;-53
2022/04/14 16:49:05;;;;;;;10.75;6.82;;;;;;;19.64;38.25;96972.28;10587727;28;20418;-56
2022/04/14 16:54:25;;;;;;;11.65;6.50;;;;;;;19.63;38.71;96971.50;10623560;27;20051;-56
2022/04/14 16:59:45;;;;;;;9.00;5.90;;;;;;;19.64;39.01;96973.09;10613004;28;20409;-56
2022/04/14 17:05:05;;;;;;;7.75;5.60;;;;;;;19.64;39.30;96980.41;10612591;27;20088;-56
2022/04/14 17:10:24;;;;;;;8.73;5.70;;;;;;;19.63;39.68;96987.72;10628478;27;20681;-56
2022/04/14 17:15:46;;;;;;;6.63;5.30;;;;;;;19.62;39.96;96985.31;10597255;27;20483;-55
2022/04/14 17:21:05;;;;;;;8.95;5.22;;;;;;;19.62;40.15;96996.13;10613572;27;20051;-52
2022/04/14 17:26:27;;;;;;;7.15;5.20;;;;;;;19.61;40.26;97006.16;10614936;27;20054;-56
2022/04/14 17:31:48;;;;;;;7.28;5.20;;;;;;;19.61;40.41;97008.88;10630806;27;20462;-54
2022/04/14 17:37:08;;;;;;;8.52;4.97;;;;;;;19.60;40.41;97022.69;10622931;27;20044;-56
2022/04/14 17:42:28;;;;;;;19.63;5.53;;;;;;;19.59;41.32;97018.41;10621912;27;20055;-52
2022/04/14 17:47:47;;;;;;;6.57;4.75;;;;;;;19.59;41.97;97030.00;10581648;27;20052;-56
2022/04/14 17:53:08;;;;;;;7.85;5.10;;;;;;;19.58;41.22;97022.22;10617771;27;20110;-54
2022/04/14 17:58:27;;;;;;;8.90;5.40;;;;;;;19.56;41.40;97026.03;10588030;27;20567;-55
2022/04/14 18:03:47;;;;;;;6.40;4.70;;;;;;;19.55;42.46;97035.25;10595429;27;20061;-56
2022/04/14 18:09:07;;;;;;;5.82;4.63;;;;;;;19.58;42.77;97033.03;10597758;27;20445;-52
2022/04/14 18:14:27;;;;;;;6.35;4.50;;;;;;;19.56;42.98;97036.84;10613616;27;20135;-53
2022/04/14 18:19:47;;;;;;;7.38;4.57;;;;;;;19.55;42.85;97043.34;10603860;27;20065;-55
2022/04/14 18:25:08;;;;;;;5.75;4.32;;;;;;;19.55;43.22;97046.06;10616843;27;20166;-56
2022/04/14 18:30:27;;;;;;;5.53;4.30;;;;;;;19.54;43.36;97052.59;10624791;27;20055;-55
2022/04/14 18:35:48;;;;;;;5.25;3.92;;;;;;;19.53;43.21;97045.59;10609247;27;20058;-56
2022/04/14 18:41:08;;;;;;;5.13;4.22;;;;;;;19.53;43.10;97048.28;10621044;27;20051;-56
2022/04/14 18:46:28;;;;;;;5.65;4.35;;;;;;;19.53;43.16;97052.91;10610100;27;20131;-56
2022/04/14 18:51:49;;;;;;;6.80;4.35;;;;;;;19.52;43.16;97060.22;10598783;27;20044;-55
2022/04/14 18:57:09;;;;;;;6.85;4.65;;;;;;;19.52;43.29;97068.31;10617717;27;20055;-55
2022/04/14 19:02:29;;;;;;;5.68;4.50;;;;;;;19.52;43.15;97062.09;10637709;27;20035;-56
2022/04/14 19:07:49;;;;;;;7.38;4.47;;;;;;;19.51;43.22;97066.72;10608117;27;20413;-54
2022/04/14 19:13:09;;;;;;;8.05;4.88;;;;;;;19.50;43.24;97065.16;10607099;27;20054;-56
2022/04/14 19:18:29;;;;;;;11.05;5.40;;;;;;;19.50;43.31;97072.44;10607877;27;20039;-56
2022/04/14 19:23:48;;;;;;;8.65;5.25;;;;;;;19.49;43.28;97079.75;10601638;27;20087;-56
2022/04/14 19:29:10;;;;;;;9.50;5.40;;;;;;;19.49;43.32;97079.75;10592822;27;20054;-54
2022/04/14 19:34:32;;;;;;;9.82;5.47;;;;;;;19.49;43.37;97081.66;10580710;27;20052;-55
2022/04/14 19:39:52;;;;;;;11.18;5.88;;;;;;;19.47;43.37;97084.69;10589065;27;20051;-56
2022/04/14 19:45:13;;;;;;;9.45;5.45;;;;;;;19.46;43.48;97088.47;10621026;27;20035;-56
2022/04/14 19:50:32;;;;;;;9.90;5.38;;;;;;;19.47;43.54;97092.00;10624321;27;20044;-55
2022/04/14 19:55:52;;;;;;;7.60;5.57;;;;;;;19.46;43.58;97093.09;10593128;27;20126;-56
2022/04/14 20:01:13;;;;;;;7.80;5.20;;;;;;;19.43;43.41;97094.53;10581573;27;20054;-56
2022/04/14 20:06:33;;;;;;;8.98;4.97;;;;;;;19.44;43.59;97096.13;10601678;27;20051;-56
2022/04/14 20:11:53;;;;;;;9.00;5.35;;;;;;;19.42;43.58;97095.63;10600783;27;20052;-57
2022/04/14 20:17:12;;;;;;;7.65;5.20;;;;;;;19.43;43.57;97109.97;10611399;27;20051;-56
2022/04/14 20:22:31;;;;;;;6.28;4.55;;;;;;;19.42;43.62;97109.16;10614354;27;20047;-56
2022/04/14 20:27:51;;;;;;;8.80;5.20;;;;;;;19.42;43.44;97111.06;10606279;27;20504;-54
2022/04/14 20:33:11;;;;;;;7.35;4.78;;;;;;;19.41;43.53;97118.38;10577463;28;20048;-55
2022/04/14 20:38:31;;;;;;;7.10;4.80;;;;;;;19.41;43.61;97117.59;10604611;27;20043;-54
2022/04/14 20:43:50;;;;;;;11.10;6.15;;;;;;;19.40;43.84;97118.69;10605001;27;20059;-56
2022/04/14 20:49:12;;;;;;;7.55;4.70;;;;;;;19.39;44.46;97123.31;10621939;27;20493;-55
2022/04/14 20:54:32;;;;;;;6.18;4.30;;;;;;;19.39;44.48;97122.50;10624829;27;20054;-55
2022/04/14 20:59:52;;;;;;;6.90;4.53;;;;;;;19.38;44.45;97137.91;10598404;27;20108;-53
2022/04/14 21:05:12;;;;;;;7.47;4.40;;;;;;;19.37;44.69;97136.31;10620132;27;20042;-56
2022/04/14 21:10:32;;;;;;;6.45;4.03;;;;;;;19.36;44.60;97143.63;10627515;27;20073;-53
2022/04/14 21:15:52;;;;;;;6.72;4.40;;;;;;;19.36;44.52;97145.53;10620439;27;20041;-55
2022/04/14 21:21:11;;;;;;;5.95;4.22;;;;;;;19.35;44.46;97149.34;10600222;27;20076;-56
2022/04/14 21:26:31;;;;;;;4.70;4.03;;;;;;;19.34;44.33;97140.44;10608506;27;20050;-56
2022/04/14 21:31:51;;;;;;;4.70;3.70;;;;;;;19.33;44.37;97152.38;10617257;27;20051;-56
2022/04/14 21:37:10;;;;;;;6.10;3.90;;;;;;;19.33;44.24;97152.38;10578603;27;20055;-56
2022/04/14 21:42:30;;;;;;;4.63;3.67;;;;;;;19.32;44.26;97148.06;10596222;27;20522;-54
2022/04/14 21:47:50;;;;;;;4.57;3.50;;;;;;;19.32;44.22;97156.16;10600241;27;20603;-55
2022/04/14 21:53:10;;;;;;;5.28;3.80;;;;;;;19.32;44.29;97153.47;10631798;27;20189;-55
2022/04/14 21:58:31;;;;;;;4.60;3.42;;;;;;;19.30;44.26;97163.00;10632970;27;20611;-56
2022/04/14 22:03:50;;;;;;;5.43;3.50;;;;;;;19.30;44.12;97168.41;10606635;27;20050;-54
2022/04/14 22:09:09;;;;;;;4.40;3.35;;;;;;;19.29;44.07;97178.41;10618864;27;20131;-56
2022/04/14 22:14:29;;;;;;;4.45;3.45;;;;;;;19.29;44.08;97178.41;10640518;27;20043;-56
2022/04/14 22:19:48;;;;;;;4.00;3.25;;;;;;;19.28;44.07;97174.09;10606498;27;20056;-56
2022/04/14 22:25:09;;;;;;;3.95;3.08;;;;;;;19.28;44.07;97181.41;10601878;27;20051;-56
2022/04/14 22:30:28;;;;;;;4.95;3.40;;;;;;;19.26;43.97;97189.03;10594700;27;20119;-56
2022/04/14 22:35:47;;;;;;;4.68;2.72;;;;;;;19.26;44.14;97194.44;10616531;27;20096;-56
2022/04/14 22:41:07;;;;;;;4.20;3.13;;;;;;;19.26;44.10;97194.44;10596166;27;20417;-56
2022/04/14 22:46:27;;;;;;;4.88;3.05;;;;;;;19.25;43.91;97206.34;10616099;27;20066;-56
2022/04/14 22:51:47;;;;;;;3.53;2.90;;;;;;;19.25;43.97;97209.88;10610422;27;20566;-55
2022/04/14 22:57:06;;;;;;;3.38;2.63;;;;;;;19.24;43.94;97218.28;10624705;27;20040;-56
2022/04/14 23:02:26;;;;;;;4.60;2.70;;;;;;;19.24;44.03;97220.97;10617918;27;20038;-55
2022/04/14 23:07:45;;;;;;;3.67;2.83;;;;;;;19.22;43.89;97215.09;10585882;27;20054;-56
2022/04/14 23:13:05;;;;;;;4.55;2.80;;;;;;;19.21;43.95;97218.88;10601235;27;20475;-56
2022/04/14 23:18:25;;;;;;;3.25;2.70;;;;;;;19.21;44.00;97218.88;10627656;27;20058;-56
2022/04/14 23:23:45;;;;;;;3.05;2.60;;;;;;;19.21;44.12;97213.47;10602697;27;20047;-55
2022/04/14 23:29:05;;;;;;;3.63;2.60;;;;;;;19.20;44.06;97211.91;10600163;27;20051;-55
2022/04/14 23:34:25;;;;;;;3.08;2.30;;;;;;;19.19;44.13;97221.91;10603688;27;20039;-55
2022/04/14 23:45:04;;;;;;;3.88;2.50;;;;;;;19.17;44.27;97222.22;10593295;27;20074;-56
2022/04/14 23:50:24;;;;;;;3.45;2.40;;;;;;;19.17;44.31;97224.91;10589367;27;20056;-56
2022/04/14 23:55:43;;;;;;;2.35;2.08;;;;;;;19.17;44.24;97210.63;10614292;27;20058;-56
